Echo Lake, CA

1:56 PM PST on February 25, 2017 (GMT -0800)
Christmas Valley | | Change Station

Elev 6394 ft 38.84 °N, 120.02 °W | Updated 14 seconds ago

Overcast
Overcast
31.8 °F
Feels Like 32 °F
N
0.0
Wind Variable Wind from WSW
Gusts 0.0 mph

Today
High -- | Low -- °F
--% Chance of Precip.
Yesterday
High -- | Low -- °F
Precip. -- in
Pressure 29.99 in
Visibility 10.0 miles
Clouds Mostly Cloudy 4400 ft
Windchill 32 °F
Dew Point 12 °F
Humidity 43%
Rainfall 0.00 in
Snow Depth Not available.
6:37 AM 5:49 PM
Waning Crescent, 1% visible
METAR KTVL 252153Z AUTO VRB03KT 10SM BKN044 M01/M10 A2995 RMK AO2 SLP153 T10061100 $
Pressure 29.99 in
Visibility 10.0 miles
Clouds Mostly Cloudy 4400 ft
Windchill 32 °F
Dew Point 12 °F
Humidity 43%
Rainfall 0.00 in
Snow Depth Not available.
6:37 AM 5:49 PM
Waning Crescent, 1% visible
METAR KTVL 252153Z AUTO VRB03KT 10SM BKN044 M01/M10 A2995 RMK AO2 SLP153 T10061100 $

Get Your Daily Forecast Email!

Thanks for signing up!

Be on the lookout for a verification email in your inbox.

You'll start receiving the daily forecast at 8 AM.

×

10-Day Weather Forecast

Almanac

Astronomy

Feb. 25, 2017 Rise Set
Actual Time
Civil Twilight
Nautical Twilight
Astronomical Twilight
Moon
Length of Visible Light
Length of Day
Tomorrow will be .
, % of the Moon is Illuminated

Today's Extremes

State Highs State Lows

Community

WunderPhotos

Upload Photos

1,962,540 photos uploaded!

WunderBlog® & News

Nearby

Air Quality

  Air Quality AQ Index Pollutant
Not available.

Snow Depth

Station Depth Elevation

Earthquake Activity

City Distance Mag. Time & Date
Minimum magnitude displayed is 2.5.

Coastal Water Temperatures

Place Temperature

Stations

Nearby Weather Stations

Station Location Temp. Windchill Dew Point Humidity Wind Precip. Elev Updated Type
                   

Watches & Warnings

Winter Weather Advisory
Issued: 3:48 AM PST Feb. 25, 2017 – National Weather Service

... Winter Weather Advisory remains in effect from 7 PM Sunday to
7 am PST Monday...

* timing: snow will begin Sunday evening and persist into early
Monday morning.

* Snow accumulations: 2 to 6 inches, with locally up to 8 inches.

* Impacts: snow and gusty winds may produce travel slow Downs,
chain controls, and periods of low visibility in blowing
snow.

Precautionary/preparedness actions...

Even light snowfall causes major travel delays, especially during
periods of high traffic volume. Be sure to allow extra time to
reach your destination. Leave extra space between vehicles since
it takes longer to stop on slick roadways.



Http://weather.Gov/Reno


Hydrologic Statement
Issued: 8:36 AM PST Feb. 25, 2017 – National Weather Service

Forecast information for
Cosumnes river at Michigan Bar.
* At 7:30 am Saturday the stage was 7.2 feet.
* Forecast to fluctuate near 7.0 ft thru late tomorrow morning.
* Flood stage 12.0 ft
* monitor stage 7.0 ft


&&

Lat... Lon 3848 12133 3859 12103 3842 12092 3836 12124


Jbb